Time;durP1;ratioP1;P1;durP2;ratioP2;P2;SDS_P1;SDS_P2;PMS_P1;PMS_P2;Temp;Humidity;BMP_temperature;BMP_pressure;BME280_temperature;BME280_humidity;BME280_pressure;Samples;Min_cycle;Max_cycle;Signal;HPM_P1;HPM_P2
2021/09/10 00:01:22;;;;;;;1999.90;999.90;;;;;;;;;;4969323;28;20239;-63
2021/09/10 00:04:07;;;;;;;1999.90;999.90;;;;;;;;;;4969025;28;20428;-63
2021/09/10 00:06:53;;;;;;;1999.90;999.90;;;;;;;;;;4965722;28;20298;-63
2021/09/10 00:09:38;;;;;;;1999.90;999.90;;;;;;;;;;4966757;28;20220;-63
2021/09/10 00:12:23;;;;;;;1999.90;999.90;;;;;;;;;;4952137;29;20320;-63
2021/09/10 00:15:08;;;;;;;1999.90;999.90;;;;;;;;;;4945012;28;20212;-62
2021/09/10 00:17:54;;;;;;;1999.90;999.90;;;;;;;;;;4971444;28;20603;-64
2021/09/10 00:20:39;;;;;;;1999.90;999.90;;;;;;;;;;4961968;28;20234;-63
2021/09/10 00:23:25;;;;;;;1999.90;999.90;;;;;;;;;;4974546;28;20711;-63
2021/09/10 00:26:10;;;;;;;1999.90;999.90;;;;;;;;;;4954358;28;20345;-64
2021/09/10 00:28:55;;;;;;;1999.90;999.90;;;;;;;;;;4970626;28;20212;-63
2021/09/10 00:31:40;;;;;;;1999.90;999.90;;;;;;;;;;4974646;28;20317;-63
2021/09/10 00:34:25;;;;;;;1999.90;999.90;;;;;;;;;;4970843;28;20589;-64
2021/09/10 00:37:10;;;;;;;1999.90;999.90;;;;;;;;;;4955626;28;20215;-63
2021/09/10 00:39:56;;;;;;;1999.90;999.90;;;;;;;;;;4957378;28;20212;-64
2021/09/10 00:42:41;;;;;;;1999.90;999.90;;;;;;;;;;4974532;28;20777;-63
2021/09/10 00:45:27;;;;;;;1999.90;999.90;;;;;;;;;;4967401;28;20953;-63
2021/09/10 00:48:12;;;;;;;1999.90;999.90;;;;;;;;;;4974189;28;20211;-63
2021/09/10 00:50:57;;;;;;;1999.90;999.90;;;;;;;;;;4957678;28;20701;-64
2021/09/10 00:53:42;;;;;;;1999.90;999.90;;;;;;;;;;4955010;29;20589;-63
2021/09/10 00:56:28;;;;;;;1999.90;999.90;;;;;;;;;;4954820;28;20216;-63
2021/09/10 00:59:13;;;;;;;1999.90;999.90;;;;;;;;;;4953999;28;20691;-64
2021/09/10 01:01:58;;;;;;;1999.90;999.90;;;;;;;;;;4954874;29;20363;-64
2021/09/10 01:04:43;;;;;;;1999.90;999.90;;;;;;;;;;4957980;28;20235;-64
2021/09/10 01:07:28;;;;;;;1999.90;999.90;;;;;;;;;;4972955;28;20233;-62
2021/09/10 01:10:13;;;;;;;1999.90;999.90;;;;;;;;;;4965720;28;20222;-62
2021/09/10 01:13:01;;;;;;;1999.90;999.90;;;;;;;;;;4969955;28;20413;-65
2021/09/10 01:15:46;;;;;;;1999.90;999.90;;;;;;;;;;4970207;28;20270;-64
2021/09/10 01:18:31;;;;;;;1999.90;999.90;;;;;;;;;;4971366;28;20706;-63
2021/09/10 01:21:18;;;;;;;1999.90;999.90;;;;;;;;;;4971267;28;20225;-63
2021/09/10 01:24:03;;;;;;;1999.90;999.90;;;;;;;;;;4969718;28;20228;-63
2021/09/10 01:26:50;;;;;;;1999.90;999.90;;;;;;;;;;4972646;28;20219;-64
2021/09/10 01:29:36;;;;;;;1999.90;999.90;;;;;;;;;;4962140;28;20704;-63
2021/09/10 01:32:21;;;;;;;1999.90;999.90;;;;;;;;;;4964281;28;20293;-62
2021/09/10 01:35:07;;;;;;;1999.90;999.90;;;;;;;;;;4964555;28;20233;-64
2021/09/10 01:37:53;;;;;;;1999.90;999.90;;;;;;;;;;4973330;28;20712;-63
2021/09/10 01:40:39;;;;;;;1999.90;999.90;;;;;;;;;;4971488;28;20694;-63
2021/09/10 01:43:25;;;;;;;1999.90;999.90;;;;;;;;;;4970930;28;20326;-64
2021/09/10 01:46:11;;;;;;;1999.90;999.90;;;;;;;;;;4964768;28;20222;-64
2021/09/10 01:48:56;;;;;;;1999.90;999.90;;;;;;;;;;4958503;28;20233;-64
2021/09/10 01:51:41;;;;;;;1999.90;999.90;;;;;;;;;;4973195;28;20272;-63
2021/09/10 01:54:27;;;;;;;1999.90;999.90;;;;;;;;;;4966571;28;20208;-63
2021/09/10 01:57:12;;;;;;;1999.90;999.90;;;;;;;;;;4972101;28;20217;-63
2021/09/10 01:59:58;;;;;;;1999.90;999.90;;;;;;;;;;4966391;28;20215;-63
2021/09/10 02:02:43;;;;;;;1999.90;999.90;;;;;;;;;;4953901;29;20243;-63
2021/09/10 02:05:29;;;;;;;1999.90;999.90;;;;;;;;;;4969337;28;20257;-64
2021/09/10 02:08:14;;;;;;;1999.90;999.90;;;;;;;;;;4970950;28;20222;-63
2021/09/10 02:10:58;;;;;;;1999.90;999.90;;;;;;;;;;4973085;28;20211;-63
2021/09/10 02:13:43;;;;;;;1999.90;999.90;;;;;;;;;;4968874;28;20217;-64
2021/09/10 02:16:30;;;;;;;1999.90;999.90;;;;;;;;;;4953397;29;20634;-63
2021/09/10 02:19:15;;;;;;;1999.90;999.90;;;;;;;;;;4952951;28;20213;-63
2021/09/10 02:22:00;;;;;;;1999.90;999.90;;;;;;;;;;4963916;28;20609;-63
2021/09/10 02:24:46;;;;;;;1999.90;999.90;;;;;;;;;;4962471;28;20803;-63
2021/09/10 02:27:32;;;;;;;1999.90;999.90;;;;;;;;;;4971319;28;20217;-63
2021/09/10 02:30:17;;;;;;;1999.90;999.90;;;;;;;;;;4961660;28;20767;-63
2021/09/10 02:33:03;;;;;;;1999.90;999.90;;;;;;;;;;4972363;28;20351;-64
2021/09/10 02:35:48;;;;;;;1999.90;999.90;;;;;;;;;;4951644;29;20333;-64
2021/09/10 02:38:34;;;;;;;1999.90;999.90;;;;;;;;;;4953960;28;20222;-63
2021/09/10 02:41:19;;;;;;;1999.90;999.90;;;;;;;;;;4972362;28;20215;-64
2021/09/10 02:44:04;;;;;;;1999.90;999.90;;;;;;;;;;4957408;28;20275;-62
2021/09/10 02:46:51;;;;;;;1999.90;999.90;;;;;;;;;;4971274;28;20201;-63
2021/09/10 02:49:40;;;;;;;1999.90;999.90;;;;;;;;;;4946094;29;20274;-64
2021/09/10 02:52:24;;;;;;;1999.90;999.90;;;;;;;;;;4952929;29;20253;-64
2021/09/10 02:55:10;;;;;;;1999.90;999.90;;;;;;;;;;4950622;29;20219;-63
2021/09/10 02:57:55;;;;;;;1999.90;999.90;;;;;;;;;;4952819;29;20698;-63
2021/09/10 03:00:40;;;;;;;1999.90;999.90;;;;;;;;;;4952652;29;20337;-62
2021/09/10 03:03:25;;;;;;;1999.90;999.90;;;;;;;;;;4947741;29;20356;-64
2021/09/10 03:06:11;;;;;;;1999.90;999.90;;;;;;;;;;4933062;29;20215;-63
2021/09/10 03:08:56;;;;;;;1999.90;999.90;;;;;;;;;;4944144;29;20611;-63
2021/09/10 03:11:41;;;;;;;1999.90;999.90;;;;;;;;;;4951190;28;20320;-62
2021/09/10 03:14:26;;;;;;;1999.90;999.90;;;;;;;;;;4951227;29;20213;-62
2021/09/10 03:17:11;;;;;;;1999.90;999.90;;;;;;;;;;4952642;29;20292;-63
2021/09/10 03:19:56;;;;;;;1999.90;999.90;;;;;;;;;;4952656;29;20266;-63
2021/09/10 03:22:44;;;;;;;1999.90;999.90;;;;;;;;;;4952533;29;20300;-64
2021/09/10 03:25:29;;;;;;;1999.90;999.90;;;;;;;;;;4951637;29;20756;-63
2021/09/10 03:28:14;;;;;;;1999.90;999.90;;;;;;;;;;4950659;29;20216;-62
2021/09/10 03:30:59;;;;;;;1999.90;999.90;;;;;;;;;;4952571;29;20220;-63
2021/09/10 03:33:44;;;;;;;1999.90;999.90;;;;;;;;;;4951316;29;20443;-63
2021/09/10 03:36:29;;;;;;;1999.90;999.90;;;;;;;;;;4952598;29;20270;-60
2021/09/10 03:39:15;;;;;;;1999.90;999.90;;;;;;;;;;4952746;29;20216;-63
2021/09/10 03:42:00;;;;;;;1999.90;999.90;;;;;;;;;;4963970;28;20602;-63
2021/09/10 03:44:45;;;;;;;1999.90;999.90;;;;;;;;;;4955954;28;20232;-62
2021/09/10 03:47:30;;;;;;;1999.90;999.90;;;;;;;;;;4949181;29;20272;-62
2021/09/10 03:50:14;;;;;;;1999.90;999.90;;;;;;;;;;4949458;29;20935;-63
2021/09/10 03:52:59;;;;;;;1999.90;999.90;;;;;;;;;;4949550;28;20786;-62
2021/09/10 03:55:46;;;;;;;1999.90;999.90;;;;;;;;;;4950857;28;20716;-59
2021/09/10 03:58:31;;;;;;;1999.90;999.90;;;;;;;;;;4955120;29;20254;-62
2021/09/10 04:01:17;;;;;;;1999.90;999.90;;;;;;;;;;4955177;28;20288;-63
2021/09/10 04:04:02;;;;;;;1999.90;999.90;;;;;;;;;;4949774;29;20243;-62
2021/09/10 04:06:47;;;;;;;1999.90;999.90;;;;;;;;;;4951788;28;20581;-61
2021/09/10 04:09:32;;;;;;;1999.90;999.90;;;;;;;;;;4954820;28;20672;-62
2021/09/10 04:12:19;;;;;;;1999.90;999.90;;;;;;;;;;4952248;28;20307;-63
2021/09/10 04:15:05;;;;;;;1999.90;999.90;;;;;;;;;;4954124;29;20731;-63
2021/09/10 04:17:50;;;;;;;1999.90;999.90;;;;;;;;;;4964844;28;20220;-63
2021/09/10 04:20:35;;;;;;;1999.90;999.90;;;;;;;;;;4975071;28;20625;-64
2021/09/10 04:23:19;;;;;;;1999.90;999.90;;;;;;;;;;4973054;28;20230;-63
2021/09/10 04:26:04;;;;;;;1999.90;999.90;;;;;;;;;;4957870;28;20280;-63
2021/09/10 04:28:51;;;;;;;1999.90;999.90;;;;;;;;;;4955711;29;20208;-63
2021/09/10 04:31:36;;;;;;;1999.90;999.90;;;;;;;;;;4957018;28;20207;-63
2021/09/10 04:34:20;;;;;;;1999.90;999.90;;;;;;;;;;4973963;28;20200;-63
2021/09/10 04:37:06;;;;;;;1999.90;999.90;;;;;;;;;;4972868;28;20220;-62
2021/09/10 04:39:52;;;;;;;1999.90;999.90;;;;;;;;;;4974507;28;20212;-62
2021/09/10 04:42:38;;;;;;;1999.90;999.90;;;;;;;;;;4971592;28;20521;-64
2021/09/10 04:45:24;;;;;;;1999.90;999.90;;;;;;;;;;4973595;28;20467;-63
2021/09/10 04:48:08;;;;;;;1999.90;999.90;;;;;;;;;;4954752;28;20354;-63
2021/09/10 04:50:53;;;;;;;1999.90;999.90;;;;;;;;;;4954577;28;20208;-64
2021/09/10 04:53:39;;;;;;;1999.90;999.90;;;;;;;;;;4972071;28;20283;-62
2021/09/10 04:56:24;;;;;;;1999.90;999.90;;;;;;;;;;4971042;28;20291;-64
2021/09/10 04:59:09;;;;;;;1999.90;999.90;;;;;;;;;;4974264;28;20289;-64
2021/09/10 05:01:55;;;;;;;1999.90;999.90;;;;;;;;;;4953940;28;20364;-63
2021/09/10 05:04:40;;;;;;;1999.90;999.90;;;;;;;;;;4954118;29;20248;-63
2021/09/10 05:07:25;;;;;;;1999.90;999.90;;;;;;;;;;4969658;28;20676;-63
2021/09/10 05:10:10;;;;;;;1999.90;999.90;;;;;;;;;;4974022;28;20217;-63
2021/09/10 05:12:55;;;;;;;1999.90;999.90;;;;;;;;;;4969241;28;20224;-64
2021/09/10 05:15:40;;;;;;;1999.90;999.90;;;;;;;;;;4972078;28;20265;-63
2021/09/10 05:18:27;;;;;;;1999.90;999.90;;;;;;;;;;4955053;28;20238;-64
2021/09/10 05:21:12;;;;;;;1999.90;999.90;;;;;;;;;;4953539;29;20209;-64
2021/09/10 05:23:57;;;;;;;1999.90;999.90;;;;;;;;;;4953967;29;20209;-63
2021/09/10 05:26:42;;;;;;;1999.90;999.90;;;;;;;;;;4955171;28;20878;-64
2021/09/10 05:29:27;;;;;;;1999.90;999.90;;;;;;;;;;4956657;28;20731;-64
2021/09/10 05:32:12;;;;;;;1999.90;999.90;;;;;;;;;;4952767;28;20248;-63
2021/09/10 05:34:58;;;;;;;1999.90;999.90;;;;;;;;;;4948899;29;20261;-63
2021/09/10 05:37:43;;;;;;;1999.90;999.90;;;;;;;;;;4953015;29;20214;-62
2021/09/10 05:40:28;;;;;;;1999.90;999.90;;;;;;;;;;4953039;29;20567;-64
2021/09/10 05:43:13;;;;;;;1999.90;999.90;;;;;;;;;;4952666;28;20278;-65
2021/09/10 05:45:58;;;;;;;1999.90;999.90;;;;;;;;;;4946999;29;20251;-63
2021/09/10 05:48:43;;;;;;;1999.90;999.90;;;;;;;;;;4948476;29;20210;-64
2021/09/10 05:51:29;;;;;;;1999.90;999.90;;;;;;;;;;4951253;28;20317;-62
2021/09/10 05:54:14;;;;;;;1999.90;999.90;;;;;;;;;;4952177;28;20216;-56
2021/09/10 05:56:59;;;;;;;1999.90;999.90;;;;;;;;;;4952288;29;20217;-62
2021/09/10 05:59:44;;;;;;;1999.90;999.90;;;;;;;;;;4948899;29;20781;-62
2021/09/10 06:02:29;;;;;;;1999.90;999.90;;;;;;;;;;4949582;28;20683;-58
2021/09/10 06:05:14;;;;;;;1999.90;999.90;;;;;;;;;;4949122;29;20221;-62
2021/09/10 06:08:01;;;;;;;1999.90;999.90;;;;;;;;;;4951776;29;20208;-64
2021/09/10 06:10:46;;;;;;;1999.90;999.90;;;;;;;;;;4953142;28;20214;-63
2021/09/10 06:13:32;;;;;;;1999.90;999.90;;;;;;;;;;4953604;28;20304;-64
2021/09/10 06:16:17;;;;;;;1999.90;999.90;;;;;;;;;;4954093;28;20265;-65
2021/09/10 06:19:02;;;;;;;1999.90;999.90;;;;;;;;;;4953391;28;20596;-64
2021/09/10 06:21:46;;;;;;;1999.90;999.90;;;;;;;;;;4951824;28;20231;-64
2021/09/10 06:24:33;;;;;;;1999.90;999.90;;;;;;;;;;4951284;29;20282;-63
2021/09/10 06:27:18;;;;;;;1999.90;999.90;;;;;;;;;;4948592;29;20263;-66
2021/09/10 06:30:04;;;;;;;1999.90;999.90;;;;;;;;;;4948926;29;20224;-65
2021/09/10 06:32:49;;;;;;;1999.90;999.90;;;;;;;;;;4951805;28;20317;-63
2021/09/10 06:35:34;;;;;;;1999.90;999.90;;;;;;;;;;4951782;29;20207;-65
2021/09/10 06:38:19;;;;;;;1999.90;999.90;;;;;;;;;;4950365;29;20700;-65
2021/09/10 06:41:05;;;;;;;1999.90;999.90;;;;;;;;;;4950784;29;20207;-65
2021/09/10 06:43:50;;;;;;;1999.90;999.90;;;;;;;;;;4949729;29;20340;-64
2021/09/10 06:46:36;;;;;;;1999.90;999.90;;;;;;;;;;4951103;28;20238;-64
2021/09/10 06:49:21;;;;;;;1999.90;999.90;;;;;;;;;;4950371;28;20219;-64
2021/09/10 06:52:06;;;;;;;1999.90;999.90;;;;;;;;;;4956526;28;20785;-64
2021/09/10 06:54:51;;;;;;;1999.90;999.90;;;;;;;;;;4959801;28;20215;-64
2021/09/10 06:57:38;;;;;;;1999.90;999.90;;;;;;;;;;4963836;28;20242;-64
2021/09/10 07:00:23;;;;;;;1999.90;999.90;;;;;;;;;;4951638;29;20269;-64
2021/09/10 07:03:08;;;;;;;1999.90;999.90;;;;;;;;;;4955275;28;20524;-65
2021/09/10 07:05:53;;;;;;;1999.90;999.90;;;;;;;;;;4967747;28;20623;-64
2021/09/10 07:08:38;;;;;;;1999.90;999.90;;;;;;;;;;4950409;29;20212;-64
2021/09/10 07:11:23;;;;;;;1999.90;999.90;;;;;;;;;;4958303;28;20223;-64
2021/09/10 07:14:10;;;;;;;1999.90;999.90;;;;;;;;;;4955505;28;20214;-64
2021/09/10 07:16:55;;;;;;;1999.90;999.90;;;;;;;;;;4933374;29;20687;-64
2021/09/10 07:19:40;;;;;;;1999.90;999.90;;;;;;;;;;4942740;29;20504;-64
2021/09/10 07:22:25;;;;;;;1999.90;999.90;;;;;;;;;;4951017;28;20240;-64
2021/09/10 07:25:10;;;;;;;1999.90;999.90;;;;;;;;;;4948173;28;20232;-65
2021/09/10 07:27:55;;;;;;;1999.90;999.90;;;;;;;;;;4971554;28;20754;-64
2021/09/10 07:30:41;;;;;;;1999.90;999.90;;;;;;;;;;4970800;28;20339;-64
2021/09/10 07:33:27;;;;;;;1999.90;999.90;;;;;;;;;;4975343;28;20281;-64
2021/09/10 07:36:12;;;;;;;1999.90;999.90;;;;;;;;;;4972681;28;20215;-64
2021/09/10 07:38:58;;;;;;;1999.90;999.90;;;;;;;;;;4965229;28;20288;-64
2021/09/10 07:41:43;;;;;;;1999.90;999.90;;;;;;;;;;4955922;29;20239;-65
2021/09/10 07:44:28;;;;;;;1999.90;999.90;;;;;;;;;;4955566;29;20324;-65
2021/09/10 07:47:15;;;;;;;1999.90;999.90;;;;;;;;;;4936789;29;20604;-63
2021/09/10 07:50:00;;;;;;;1999.90;999.90;;;;;;;;;;4939931;28;20207;-63
2021/09/10 07:52:45;;;;;;;1999.90;999.90;;;;;;;;;;4953314;28;20240;-64
2021/09/10 07:55:30;;;;;;;1999.90;999.90;;;;;;;;;;4955190;29;20205;-64
2021/09/10 07:58:15;;;;;;;1999.90;999.90;;;;;;;;;;4955831;29;20236;-64
2021/09/10 08:01:00;;;;;;;1999.90;999.90;;;;;;;;;;4956020;29;20269;-65
2021/09/10 08:03:47;;;;;;;1999.90;999.90;;;;;;;;;;4955992;29;20216;-64
2021/09/10 08:06:34;;;;;;;1999.90;999.90;;;;;;;;;;4955433;29;20726;-64
2021/09/10 08:09:19;;;;;;;1999.90;999.90;;;;;;;;;;4954794;29;20283;-64
2021/09/10 08:12:04;;;;;;;1999.90;999.90;;;;;;;;;;4955619;29;20237;-64
2021/09/10 08:14:49;;;;;;;1999.90;999.90;;;;;;;;;;4958508;28;20714;-64
2021/09/10 08:17:34;;;;;;;1999.90;999.90;;;;;;;;;;4975003;28;20196;-64
2021/09/10 08:20:20;;;;;;;1999.90;999.90;;;;;;;;;;4963200;28;20211;-63
2021/09/10 08:23:06;;;;;;;1999.90;999.90;;;;;;;;;;4951327;28;20228;-63
2021/09/10 08:25:52;;;;;;;1999.90;999.90;;;;;;;;;;4953271;29;20232;-64
2021/09/10 08:28:37;;;;;;;1999.90;999.90;;;;;;;;;;4951649;29;20212;-65
2021/09/10 08:31:23;;;;;;;1999.90;999.90;;;;;;;;;;4952074;28;20201;-63
2021/09/10 08:34:08;;;;;;;1999.90;999.90;;;;;;;;;;4953382;29;20476;-62
2021/09/10 08:36:54;;;;;;;1999.90;999.90;;;;;;;;;;4953975;29;20208;-63
2021/09/10 08:39:39;;;;;;;1999.90;999.90;;;;;;;;;;4953872;29;20212;-63
2021/09/10 08:42:24;;;;;;;1999.90;999.90;;;;;;;;;;4951125;28;20320;-63
2021/09/10 08:45:09;;;;;;;1999.90;999.90;;;;;;;;;;4953230;28;20325;-63
2021/09/10 08:47:54;;;;;;;1999.90;999.90;;;;;;;;;;4953530;29;21061;-63
2021/09/10 08:50:39;;;;;;;1999.90;999.90;;;;;;;;;;4949266;29;20212;-63
2021/09/10 08:53:27;;;;;;;1999.90;999.90;;;;;;;;;;4951321;28;20260;-64
2021/09/10 08:56:12;;;;;;;1999.90;999.90;;;;;;;;;;4951195;28;20698;-64
2021/09/10 08:59:10;;;;;;;1999.90;999.90;;;;;;;;;;4953520;29;20225;-64
2021/09/10 09:01:56;;;;;;;1999.90;999.90;;;;;;;;;;4949581;28;20240;-63
2021/09/10 09:04:41;;;;;;;1999.90;999.90;;;;;;;;;;4950104;29;20588;-63
2021/09/10 09:07:26;;;;;;;1999.90;999.90;;;;;;;;;;4950367;29;20726;-64
2021/09/10 09:10:13;;;;;;;1999.90;999.90;;;;;;;;;;4951773;29;20703;-64
2021/09/10 09:13:11;;;;;;;1999.90;999.90;;;;;;;;;;4951639;28;20321;-64
2021/09/10 09:16:13;;;;;;;1999.90;999.90;;;;;;;;;;4934509;29;20210;-63
2021/09/10 09:18:59;;;;;;;1999.90;999.90;;;;;;;;;;4935349;29;20254;-64
2021/09/10 09:21:44;;;;;;;1999.90;999.90;;;;;;;;;;4951029;28;20624;-63
2021/09/10 09:24:29;;;;;;;1999.90;999.90;;;;;;;;;;4942462;29;20425;-64
2021/09/10 09:27:15;;;;;;;1999.90;999.90;;;;;;;;;;4952609;29;20275;-64
2021/09/10 09:30:00;;;;;;;1999.90;999.90;;;;;;;;;;4951829;28;20607;-64
2021/09/10 09:32:49;;;;;;;1999.90;999.90;;;;;;;;;;4948350;29;20323;-66
2021/09/10 09:35:34;;;;;;;1999.90;999.90;;;;;;;;;;4948889;29;20274;-63
2021/09/10 09:38:25;;;;;;;1999.90;999.90;;;;;;;;;;4953754;29;20207;-64
2021/09/10 09:41:11;;;;;;;1999.90;999.90;;;;;;;;;;4962135;28;20215;-64
2021/09/10 09:44:08;;;;;;;1999.90;999.90;;;;;;;;;;4971119;28;20227;-63
2021/09/10 09:47:00;;;;;;;1999.90;999.90;;;;;;;;;;4953792;28;20232;-62
2021/09/10 09:49:46;;;;;;;1999.90;999.90;;;;;;;;;;4952695;29;20216;-64
2021/09/10 09:52:31;;;;;;;1999.90;999.90;;;;;;;;;;4952416;28;20891;-64
2021/09/10 09:55:16;;;;;;;1999.90;999.90;;;;;;;;;;4948355;29;20588;-64
2021/09/10 09:58:03;;;;;;;1999.90;999.90;;;;;;;;;;4950987;28;20335;-64
2021/09/10 10:00:49;;;;;;;1999.90;999.90;;;;;;;;;;4959690;28;20299;-63
2021/09/10 10:03:34;;;;;;;1999.90;999.90;;;;;;;;;;4951714;28;20263;-65
2021/09/10 10:06:22;;;;;;;1999.90;999.90;;;;;;;;;;4950184;28;20796;-63
2021/09/10 10:09:09;;;;;;;1999.90;999.90;;;;;;;;;;4950709;29;20770;-63
2021/09/10 10:11:56;;;;;;;1999.90;999.90;;;;;;;;;;4934219;29;20595;-63
2021/09/10 10:14:41;;;;;;;1999.90;999.90;;;;;;;;;;4955252;28;20219;-63
2021/09/10 10:17:37;;;;;;;1999.90;999.90;;;;;;;;;;4972872;28;20232;-64
2021/09/10 10:20:41;;;;;;;1999.90;999.90;;;;;;;;;;4966819;28;20276;-63
2021/09/10 10:23:45;;;;;;;1999.90;999.90;;;;;;;;;;4954504;28;20238;-64
2021/09/10 10:26:35;;;;;;;1999.90;999.90;;;;;;;;;;4972466;28;20773;-63
2021/09/10 10:29:20;;;;;;;1999.90;999.90;;;;;;;;;;4970323;28;20351;-62
2021/09/10 10:32:07;;;;;;;1999.90;999.90;;;;;;;;;;4972185;28;20232;-64
2021/09/10 10:35:07;;;;;;;1999.90;999.90;;;;;;;;;;4968634;28;20454;-63
2021/09/10 10:37:54;;;;;;;1999.90;999.90;;;;;;;;;;4970540;28;20313;-63
2021/09/10 10:40:40;;;;;;;1999.90;999.90;;;;;;;;;;4972426;28;20279;-63
2021/09/10 10:43:26;;;;;;;1999.90;999.90;;;;;;;;;;4953479;28;20253;-63
2021/09/10 10:46:12;;;;;;;1999.90;999.90;;;;;;;;;;4952223;29;20243;-63
2021/09/10 10:48:56;;;;;;;1999.90;999.90;;;;;;;;;;4951203;28;20720;-63
2021/09/10 10:51:42;;;;;;;1999.90;999.90;;;;;;;;;;4953614;28;20236;-63
2021/09/10 10:54:30;;;;;;;1999.90;999.90;;;;;;;;;;4950844;29;20333;-61
2021/09/10 10:57:27;;;;;;;1999.90;999.90;;;;;;;;;;4951252;28;20747;-64
2021/09/10 11:00:31;;;;;;;1999.90;999.90;;;;;;;;;;4948799;29;20260;-63
2021/09/10 11:03:37;;;;;;;1999.90;999.90;;;;;;;;;;4950514;29;20307;-63
2021/09/10 11:06:30;;;;;;;1999.90;999.90;;;;;;;;;;4932738;29;20377;-63
2021/09/10 11:09:14;;;;;;;1999.90;999.90;;;;;;;;;;4944726;29;20212;-63
2021/09/10 11:12:01;;;;;;;1999.90;999.90;;;;;;;;;;4951338;28;20239;-63
2021/09/10 11:14:46;;;;;;;1999.90;999.90;;;;;;;;;;4952212;28;20204;-63
2021/09/10 11:17:30;;;;;;;1999.90;999.90;;;;;;;;;;4952599;29;20252;-64
2021/09/10 11:20:24;;;;;;;1999.90;999.90;;;;;;;;;;4956740;28;20252;-63
2021/09/10 11:23:10;;;;;;;1999.90;999.90;;;;;;;;;;4969958;28;20239;-63
2021/09/10 11:25:56;;;;;;;1999.90;999.90;;;;;;;;;;4971063;28;20282;-63
2021/09/10 11:28:42;;;;;;;1999.90;999.90;;;;;;;;;;4969973;28;20725;-63
2021/09/10 11:31:27;;;;;;;1999.90;999.90;;;;;;;;;;4971403;28;20207;-63
2021/09/10 11:34:27;;;;;;;1999.90;999.90;;;;;;;;;;4952797;28;20220;-62
2021/09/10 11:37:12;;;;;;;1999.90;999.90;;;;;;;;;;4955491;28;20240;-62
2021/09/10 11:39:57;;;;;;;1999.90;999.90;;;;;;;;;;4971300;28;20211;-64
2021/09/10 11:42:42;;;;;;;1999.90;999.90;;;;;;;;;;4960123;28;20800;-62
2021/09/10 11:45:30;;;;;;;1999.90;999.90;;;;;;;;;;4947870;28;20444;-63
2021/09/10 11:48:18;;;;;;;1999.90;999.90;;;;;;;;;;4964105;28;20236;-63
2021/09/10 11:51:04;;;;;;;1999.90;999.90;;;;;;;;;;4958482;28;20264;-63
2021/09/10 11:53:53;;;;;;;1999.90;999.90;;;;;;;;;;4965069;28;20215;-63
2021/09/10 11:56:38;;;;;;;1999.90;999.90;;;;;;;;;;4967139;28;20207;-63
2021/09/10 11:59:25;;;;;;;1999.90;999.90;;;;;;;;;;4969552;28;20690;-63
2021/09/10 12:02:11;;;;;;;1999.90;999.90;;;;;;;;;;4958123;28;20381;-62
2021/09/10 12:04:57;;;;;;;1999.90;999.90;;;;;;;;;;4967843;28;20301;-63
2021/09/10 12:07:49;;;;;;;1999.90;999.90;;;;;;;;;;4967822;28;20224;-62
2021/09/10 12:10:35;;;;;;;1999.90;999.90;;;;;;;;;;4955954;28;20211;-62
2021/09/10 12:13:20;;;;;;;1999.90;999.90;;;;;;;;;;4949486;28;20392;-62
2021/09/10 12:16:15;;;;;;;1999.90;999.90;;;;;;;;;;4948658;28;20213;-62
2021/09/10 12:19:02;;;;;;;1999.90;999.90;;;;;;;;;;4964715;28;20208;-62
2021/09/10 12:21:47;;;;;;;1999.90;999.90;;;;;;;;;;4963465;28;20232;-63
2021/09/10 12:24:32;;;;;;;1999.90;999.90;;;;;;;;;;4954328;29;20272;-62
2021/09/10 12:27:29;;;;;;;1999.90;999.90;;;;;;;;;;4954841;29;20617;-63
2021/09/10 12:30:15;;;;;;;1999.90;999.90;;;;;;;;;;4955568;29;20368;-63
2021/09/10 12:33:00;;;;;;;1999.90;999.90;;;;;;;;;;4955304;28;20254;-63
2021/09/10 12:35:46;;;;;;;1999.90;999.90;;;;;;;;;;4954839;29;20698;-62
2021/09/10 12:38:33;;;;;;;1999.90;999.90;;;;;;;;;;4955563;28;20329;-63
2021/09/10 12:41:18;;;;;;;1999.90;999.90;;;;;;;;;;4955326;29;20210;-63
2021/09/10 12:44:08;;;;;;;1999.90;999.90;;;;;;;;;;4954437;29;20693;-62
2021/09/10 12:46:53;;;;;;;1999.90;999.90;;;;;;;;;;4955191;29;20598;-62
2021/09/10 12:49:38;;;;;;;1999.90;999.90;;;;;;;;;;4954862;29;20318;-63
2021/09/10 12:52:25;;;;;;;1999.90;999.90;;;;;;;;;;4954543;28;20228;-63
2021/09/10 12:55:10;;;;;;;1999.90;999.90;;;;;;;;;;4952845;29;20533;-63
2021/09/10 12:57:55;;;;;;;1999.90;999.90;;;;;;;;;;4954952;29;20727;-63
2021/09/10 13:00:41;;;;;;;1999.90;999.90;;;;;;;;;;4964282;28;20254;-63
2021/09/10 13:03:26;;;;;;;1999.90;999.90;;;;;;;;;;4954805;29;20312;-63
2021/09/10 13:06:11;;;;;;;1999.90;999.90;;;;;;;;;;4953975;29;20211;-63
2021/09/10 13:08:57;;;;;;;1999.90;999.90;;;;;;;;;;4966722;28;20204;-62
2021/09/10 13:11:42;;;;;;;1999.90;999.90;;;;;;;;;;4952815;28;20278;-63
2021/09/10 13:14:27;;;;;;;1999.90;999.90;;;;;;;;;;4954156;29;20217;-62
2021/09/10 13:17:12;;;;;;;1999.90;999.90;;;;;;;;;;4954289;29;20272;-66
2021/09/10 13:19:57;;;;;;;1999.90;999.90;;;;;;;;;;4949269;29;20209;-60
2021/09/10 13:22:42;;;;;;;1999.90;999.90;;;;;;;;;;4960986;28;20254;-65
2021/09/10 13:25:28;;;;;;;1999.90;999.90;;;;;;;;;;4955464;28;20317;-62
2021/09/10 13:28:13;;;;;;;1999.90;999.90;;;;;;;;;;4952991;28;20248;-61
2021/09/10 13:30:58;;;;;;;1999.90;999.90;;;;;;;;;;4954480;29;20216;-62
2021/09/10 13:33:43;;;;;;;1999.90;999.90;;;;;;;;;;4953935;28;20240;-63
2021/09/10 13:36:28;;;;;;;1999.90;999.90;;;;;;;;;;4954542;29;20296;-63
2021/09/10 13:39:13;;;;;;;1999.90;999.90;;;;;;;;;;4954551;29;20201;-63
2021/09/10 13:42:00;;;;;;;1999.90;999.90;;;;;;;;;;4954397;28;20595;-63
2021/09/10 13:44:45;;;;;;;1999.90;999.90;;;;;;;;;;4953683;29;20379;-63
2021/09/10 13:47:30;;;;;;;1999.90;999.90;;;;;;;;;;4953991;29;20304;-63
2021/09/10 13:50:15;;;;;;;1999.90;999.90;;;;;;;;;;4954152;29;20284;-63
2021/09/10 13:53:00;;;;;;;1999.90;999.90;;;;;;;;;;4954227;28;20512;-63
2021/09/10 13:55:46;;;;;;;1999.90;999.90;;;;;;;;;;4953276;29;20304;-63
2021/09/10 13:58:32;;;;;;;1999.90;999.90;;;;;;;;;;4954114;29;20204;-63
2021/09/10 14:01:17;;;;;;;1999.90;999.90;;;;;;;;;;4954063;29;20252;-62
2021/09/10 14:04:02;;;;;;;1999.90;999.90;;;;;;;;;;4953257;29;20209;-62
2021/09/10 14:06:47;;;;;;;1999.90;999.90;;;;;;;;;;4953951;29;20213;-61
2021/09/10 14:09:32;;;;;;;1999.90;999.90;;;;;;;;;;4953914;29;20208;-63
2021/09/10 14:12:17;;;;;;;1999.90;999.90;;;;;;;;;;4953791;28;20228;-63
2021/09/10 14:15:03;;;;;;;1999.90;999.90;;;;;;;;;;4952870;29;20208;-63
2021/09/10 14:17:49;;;;;;;1999.90;999.90;;;;;;;;;;4953679;29;20201;-63
2021/09/10 14:20:34;;;;;;;1999.90;999.90;;;;;;;;;;4953552;29;20208;-62
2021/09/10 14:23:19;;;;;;;1999.90;999.90;;;;;;;;;;4953558;28;20727;-62
2021/09/10 14:26:04;;;;;;;1999.90;999.90;;;;;;;;;;4952603;29;20193;-63
2021/09/10 14:28:49;;;;;;;1999.90;999.90;;;;;;;;;;4953345;28;20268;-63
2021/09/10 14:31:35;;;;;;;1999.90;999.90;;;;;;;;;;4953120;28;20209;-62
2021/09/10 14:34:21;;;;;;;1999.90;999.90;;;;;;;;;;4952517;28;20280;-58
2021/09/10 14:37:07;;;;;;;1999.90;999.90;;;;;;;;;;4953464;29;20213;-62
2021/09/10 14:39:51;;;;;;;1999.90;999.90;;;;;;;;;;4952810;28;20346;-63
2021/09/10 14:42:36;;;;;;;1999.90;999.90;;;;;;;;;;4953138;28;20228;-62
2021/09/10 14:45:21;;;;;;;1999.90;999.90;;;;;;;;;;4952479;29;20204;-62
2021/09/10 14:48:08;;;;;;;1999.90;999.90;;;;;;;;;;4952902;29;20328;-63
2021/09/10 14:50:53;;;;;;;1999.90;999.90;;;;;;;;;;4953120;29;20689;-62
2021/09/10 14:53:38;;;;;;;1999.90;999.90;;;;;;;;;;4953037;28;20328;-62
2021/09/10 14:56:24;;;;;;;1999.90;999.90;;;;;;;;;;4952348;29;20280;-63
2021/09/10 14:59:15;;;;;;;1999.90;999.90;;;;;;;;;;4953034;29;20224;-62
2021/09/10 15:02:00;;;;;;;1999.90;999.90;;;;;;;;;;4952742;28;20754;-63
2021/09/10 15:04:47;;;;;;;1999.90;999.90;;;;;;;;;;4952192;29;20213;-62
2021/09/10 15:07:32;;;;;;;1999.90;999.90;;;;;;;;;;4952801;29;20281;-61
2021/09/10 15:10:17;;;;;;;1999.90;999.90;;;;;;;;;;4952804;29;20205;-60
2021/09/10 15:13:03;;;;;;;1999.90;999.90;;;;;;;;;;4952017;28;20431;-63
2021/09/10 15:15:49;;;;;;;1999.90;999.90;;;;;;;;;;4951964;28;20344;-63
2021/09/10 15:18:34;;;;;;;1999.90;999.90;;;;;;;;;;4952950;29;20302;-63
2021/09/10 15:21:20;;;;;;;1999.90;999.90;;;;;;;;;;4952828;29;20348;-61
2021/09/10 15:24:05;;;;;;;1999.90;999.90;;;;;;;;;;4952893;29;20600;-63
2021/09/10 15:26:50;;;;;;;1999.90;999.90;;;;;;;;;;4953080;29;20213;-63